createdAt,value
2023-04-30T00:00:59.021Z,9.13
2023-04-30T00:03:47.590Z,8.80
2023-04-30T00:06:36.090Z,9.90
2023-04-30T00:09:24.703Z,8.17
2023-04-30T00:12:13.185Z,9.43
2023-04-30T00:15:03.030Z,8.50
2023-04-30T00:17:51.667Z,8.90
2023-04-30T00:20:40.218Z,8.80
2023-04-30T00:23:28.789Z,9.00
2023-04-30T00:26:17.266Z,8.70
2023-04-30T00:29:07.065Z,8.30
2023-04-30T00:31:56.929Z,8.77
2023-04-30T00:34:46.003Z,8.10
2023-04-30T00:37:34.549Z,7.70
2023-04-30T00:40:23.075Z,8.13
2023-04-30T00:43:11.573Z,8.90
2023-04-30T00:46:00.196Z,7.90
2023-04-30T00:48:50.267Z,9.20
2023-04-30T00:51:41.603Z,7.60
2023-04-30T00:54:30.146Z,7.73
2023-04-30T00:57:18.826Z,7.73
2023-04-30T01:00:09.570Z,7.23
2023-04-30T01:02:58.362Z,6.20
2023-04-30T01:05:48.240Z,7.00
2023-04-30T01:08:36.872Z,7.47
2023-04-30T01:11:32.950Z,6.37
2023-04-30T01:14:27.576Z,6.50
2023-04-30T01:17:19.735Z,7.40
2023-04-30T01:20:09.554Z,7.40
2023-04-30T01:23:13.429Z,7.30
2023-04-30T01:26:12.701Z,7.47
2023-04-30T01:29:04.257Z,6.17
2023-04-30T01:31:53.028Z,6.00
2023-04-30T01:34:41.719Z,6.53
2023-04-30T01:37:34.792Z,6.73
2023-04-30T01:40:25.878Z,6.10
2023-04-30T01:43:21.938Z,6.30
2023-04-30T01:46:17.938Z,7.00
2023-04-30T01:49:12.876Z,6.30
2023-04-30T01:52:12.515Z,6.33
2023-04-30T01:55:02.493Z,6.60
2023-04-30T01:57:57.763Z,6.07
2023-04-30T02:00:46.390Z,6.63
2023-04-30T02:03:36.285Z,6.33
2023-04-30T02:06:28.263Z,6.00
2023-04-30T02:09:16.929Z,6.77
2023-04-30T02:12:05.749Z,7.10
2023-04-30T02:14:54.249Z,6.97
2023-04-30T02:17:42.823Z,6.97
2023-04-30T02:20:32.747Z,7.67
2023-04-30T02:23:21.335Z,8.53
2023-04-30T02:26:09.865Z,7.73
2023-04-30T02:28:58.320Z,9.73
2023-04-30T02:31:46.862Z,8.60
2023-04-30T02:34:35.478Z,8.70
2023-04-30T02:37:25.501Z,8.67
2023-04-30T02:40:14.157Z,8.40
2023-04-30T02:43:02.621Z,9.67
2023-04-30T02:45:51.208Z,9.83
2023-04-30T02:48:39.802Z,9.00
2023-04-30T02:51:28.294Z,9.60
2023-04-30T02:54:18.091Z,9.80
2023-04-30T02:57:06.879Z,8.57
2023-04-30T02:59:55.612Z,8.37
2023-04-30T03:02:44.523Z,8.10
2023-04-30T03:05:33.049Z,10.03
2023-04-30T03:08:21.550Z,8.47
2023-04-30T03:11:11.334Z,9.13
2023-04-30T03:13:59.808Z,9.77
2023-04-30T03:16:48.457Z,9.50
2023-04-30T03:19:37.180Z,9.70
2023-04-30T03:22:26.725Z,10.00
2023-04-30T03:25:15.443Z,9.30
2023-04-30T03:28:05.675Z,8.67
2023-04-30T03:30:54.173Z,9.00
2023-04-30T03:33:42.681Z,8.20
2023-04-30T03:36:31.291Z,9.20
2023-04-30T03:39:19.775Z,9.90
2023-04-30T03:42:08.282Z,9.43
2023-04-30T03:44:58.222Z,9.40
2023-04-30T03:47:47.001Z,9.60
2023-04-30T03:50:35.672Z,10.03
2023-04-30T03:53:25.788Z,8.40
2023-04-30T03:56:14.435Z,9.40
2023-04-30T03:59:03.057Z,9.87
2023-04-30T04:01:52.976Z,9.40
2023-04-30T04:04:41.457Z,9.50
2023-04-30T04:07:29.914Z,9.57
2023-04-30T04:10:18.368Z,8.90
2023-04-30T04:13:06.845Z,9.33
2023-04-30T04:15:55.327Z,10.30
2023-04-30T04:18:45.431Z,9.90
2023-04-30T04:21:33.874Z,9.23
2023-04-30T04:24:22.333Z,9.40
2023-04-30T04:27:10.804Z,9.50
2023-04-30T04:29:59.254Z,9.27
2023-04-30T04:32:49.391Z,9.17
2023-04-30T04:35:39.304Z,9.50
2023-04-30T04:38:27.766Z,9.57
2023-04-30T04:41:16.575Z,10.77
2023-04-30T04:44:05.699Z,10.93
2023-04-30T04:46:56.642Z,8.70
2023-04-30T04:49:45.237Z,10.57
2023-04-30T04:52:35.057Z,9.23
2023-04-30T04:55:23.525Z,9.97
2023-04-30T04:58:12.014Z,9.87
2023-04-30T05:01:01.323Z,9.03
2023-04-30T05:03:49.969Z,10.67
2023-04-30T05:06:38.614Z,9.60
2023-04-30T05:09:28.514Z,10.13
2023-04-30T05:12:17.003Z,10.77
2023-04-30T05:15:06.593Z,8.80
2023-04-30T05:17:55.170Z,9.80
2023-04-30T05:20:43.756Z,8.87
2023-04-30T05:23:32.280Z,9.77
2023-04-30T05:26:24.426Z,10.90
2023-04-30T05:29:13.343Z,9.20
2023-04-30T05:32:02.992Z,10.30
2023-04-30T05:34:51.610Z,9.83
2023-04-30T05:37:40.141Z,9.40
2023-04-30T05:40:29.139Z,10.50
2023-04-30T05:43:18.934Z,10.40
2023-04-30T05:46:07.474Z,10.43
2023-04-30T05:48:55.957Z,9.97
2023-04-30T05:51:44.445Z,10.57
2023-04-30T05:54:33.266Z,11.80
2023-04-30T05:57:21.824Z,10.00
2023-04-30T06:00:13.525Z,10.00
2023-04-30T06:03:02.006Z,11.30
2023-04-30T06:05:50.636Z,10.30
2023-04-30T06:08:42.421Z,10.53
2023-04-30T06:11:30.947Z,11.53
2023-04-30T06:14:20.111Z,11.77
2023-04-30T06:17:09.957Z,11.57
2023-04-30T06:20:00.754Z,11.60
2023-04-30T06:22:49.295Z,12.30
2023-04-30T06:25:37.844Z,11.83
2023-04-30T06:28:26.508Z,12.03
2023-04-30T06:31:15.176Z,11.90
2023-04-30T06:34:05.027Z,12.40
2023-04-30T06:36:53.543Z,11.00
2023-04-30T06:39:42.036Z,11.20
2023-04-30T06:42:34.283Z,12.47
2023-04-30T06:45:22.852Z,10.77
2023-04-30T06:48:11.327Z,10.60
2023-04-30T06:51:01.157Z,10.43
2023-04-30T06:53:49.569Z,11.80
2023-04-30T06:56:37.991Z,11.00
2023-04-30T06:59:26.434Z,10.90
2023-04-30T07:02:14.993Z,10.10
2023-04-30T07:05:03.940Z,10.00
2023-04-30T07:07:53.782Z,10.40
2023-04-30T07:10:42.291Z,11.07
2023-04-30T07:13:30.713Z,11.23
2023-04-30T07:16:19.219Z,10.87
2023-04-30T07:19:07.733Z,11.37
2023-04-30T07:21:56.188Z,10.60
2023-04-30T07:24:46.012Z,11.63
2023-04-30T07:27:34.530Z,11.40
2023-04-30T07:30:25.035Z,10.30
2023-04-30T07:33:14.221Z,12.23
2023-04-30T07:36:02.713Z,11.10
2023-04-30T07:38:51.438Z,11.00
2023-04-30T07:41:41.346Z,11.13
2023-04-30T07:44:29.932Z,9.87
2023-04-30T07:47:19.935Z,10.83
2023-04-30T07:50:09.149Z,9.60
2023-04-30T07:52:57.634Z,8.77
2023-04-30T07:55:46.430Z,9.77
2023-04-30T07:58:36.303Z,10.20
2023-04-30T08:01:24.840Z,9.70
2023-04-30T08:04:13.354Z,9.43
2023-04-30T08:07:02.720Z,8.53
2023-04-30T08:09:51.693Z,8.30
2023-04-30T08:12:40.769Z,7.73
2023-04-30T08:15:30.824Z,8.27
2023-04-30T08:18:19.258Z,8.70
2023-04-30T08:21:07.927Z,8.13
2023-04-30T08:23:57.178Z,7.27
2023-04-30T08:26:45.653Z,7.97
2023-04-30T08:29:34.223Z,7.37
2023-04-30T08:32:24.184Z,7.50
2023-04-30T08:35:12.791Z,7.03
2023-04-30T08:38:01.228Z,7.37
2023-04-30T08:40:54.045Z,8.47
2023-04-30T08:43:45.163Z,7.90
2023-04-30T08:46:35.651Z,6.70
2023-04-30T08:49:26.254Z,6.90
2023-04-30T08:52:15.785Z,7.87
2023-04-30T08:55:08.755Z,8.47
2023-04-30T08:57:57.207Z,7.60
2023-04-30T09:00:45.852Z,8.03
2023-04-30T09:03:34.457Z,7.50
2023-04-30T09:06:24.391Z,8.47
2023-04-30T09:09:13.932Z,7.53
2023-04-30T09:12:18.381Z,7.53
2023-04-30T09:15:09.075Z,8.70
2023-04-30T09:18:08.505Z,7.80
2023-04-30T09:20:58.709Z,8.03
2023-04-30T09:23:58.453Z,6.37
2023-04-30T09:26:48.244Z,7.60
2023-04-30T09:29:38.280Z,6.87
2023-04-30T09:32:27.246Z,7.07
2023-04-30T09:35:30.777Z,8.00
2023-04-30T09:38:27.556Z,6.53
2023-04-30T09:41:24.922Z,6.47
2023-04-30T09:44:28.332Z,7.40
2023-04-30T09:47:18.179Z,6.23
2023-04-30T09:50:07.766Z,5.57
2023-04-30T09:53:06.664Z,5.10
2023-04-30T09:55:56.784Z,5.40
2023-04-30T09:58:52.110Z,5.17
2023-04-30T10:01:41.148Z,4.80
2023-04-30T10:04:32.002Z,5.23
2023-04-30T10:07:22.697Z,4.83
2023-04-30T10:10:11.992Z,4.20
2023-04-30T10:13:07.150Z,4.10
2023-04-30T10:16:00.389Z,3.80
2023-04-30T10:18:51.758Z,4.00
2023-04-30T10:21:41.558Z,4.23
2023-04-30T10:24:30.134Z,5.10
2023-04-30T10:27:19.251Z,4.63
2023-04-30T10:30:09.947Z,4.50
2023-04-30T10:33:06.549Z,4.63
2023-04-30T10:35:59.495Z,4.50
2023-04-30T10:38:48.611Z,4.87
2023-04-30T10:41:37.107Z,4.60
2023-04-30T10:44:26.916Z,4.13
2023-04-30T10:47:15.462Z,4.87
2023-04-30T10:50:06.418Z,4.63
2023-04-30T10:53:04.133Z,3.90
2023-04-30T10:55:54.854Z,4.37
2023-04-30T10:58:44.060Z,4.17
2023-04-30T11:01:32.725Z,4.20
2023-04-30T11:04:21.342Z,4.03
2023-04-30T11:07:11.678Z,4.20
2023-04-30T11:10:01.954Z,3.83
2023-04-30T11:12:52.038Z,3.67
2023-04-30T11:15:42.219Z,4.20
2023-04-30T11:18:31.124Z,3.47
2023-04-30T11:21:21.707Z,4.20
2023-04-30T11:24:11.511Z,3.63
2023-04-30T11:27:05.407Z,3.90
2023-04-30T11:29:54.964Z,3.50
2023-04-30T11:32:46.310Z,3.60
2023-04-30T11:35:34.989Z,4.50
2023-04-30T11:38:27.664Z,3.90
2023-04-30T11:41:17.453Z,5.30
2023-04-30T11:44:23.473Z,3.43
2023-04-30T11:47:12.218Z,3.40
2023-04-30T11:50:00.702Z,4.27
2023-04-30T11:52:53.693Z,3.63
2023-04-30T11:55:42.698Z,5.47
2023-04-30T11:58:37.968Z,3.33
2023-04-30T12:01:28.481Z,3.70
2023-04-30T12:04:17.112Z,3.83
2023-04-30T12:07:08.959Z,3.77
2023-04-30T12:09:57.736Z,3.93
2023-04-30T12:12:46.567Z,3.97
2023-04-30T12:15:37.133Z,3.43
2023-04-30T12:18:25.829Z,6.60
2023-04-30T12:21:14.693Z,4.73
2023-04-30T12:24:03.674Z,4.60
2023-04-30T12:26:54.685Z,4.63
2023-04-30T12:29:46.434Z,4.23
2023-04-30T12:32:41.193Z,3.70
2023-04-30T12:35:32.491Z,3.77
2023-04-30T12:38:23.326Z,4.20
2023-04-30T12:41:15.156Z,3.57
2023-04-30T12:44:17.672Z,4.07
2023-04-30T12:47:10.179Z,4.17
2023-04-30T12:50:00.068Z,4.33
2023-04-30T12:52:48.709Z,4.43
2023-04-30T12:55:37.846Z,3.70
2023-04-30T12:58:31.726Z,4.10
2023-04-30T13:01:21.553Z,4.37
2023-04-30T13:04:10.141Z,4.33
2023-04-30T13:07:00.232Z,4.30
2023-04-30T13:09:48.693Z,5.00
2023-04-30T13:12:37.196Z,4.50
2023-04-30T13:15:25.686Z,4.30
2023-04-30T13:18:15.818Z,4.07
2023-04-30T13:21:04.553Z,4.30
2023-04-30T13:23:55.750Z,4.47
2023-04-30T13:26:45.997Z,3.97
2023-04-30T13:29:34.486Z,3.90
2023-04-30T13:32:23.024Z,4.10
2023-04-30T13:35:11.749Z,3.87
2023-04-30T13:38:00.541Z,4.30
2023-04-30T13:40:50.471Z,4.50
2023-04-30T13:43:42.483Z,3.70
2023-04-30T13:46:31.400Z,4.23
2023-04-30T13:49:19.956Z,4.13
2023-04-30T13:52:08.470Z,3.90
2023-04-30T13:54:57.313Z,3.70
2023-04-30T13:57:47.208Z,3.60
2023-04-30T14:00:35.834Z,4.00
2023-04-30T14:03:24.626Z,3.83
2023-04-30T14:06:13.301Z,4.13
2023-04-30T14:09:02.050Z,4.07
2023-04-30T14:11:51.185Z,4.43
2023-04-30T14:14:41.143Z,4.00
2023-04-30T14:17:30.292Z,4.00
2023-04-30T14:20:18.806Z,4.60
2023-04-30T14:23:07.228Z,4.70
2023-04-30T14:25:56.475Z,5.10
2023-04-30T14:28:44.970Z,4.43
2023-04-30T14:31:34.835Z,4.13
2023-04-30T14:34:24.441Z,4.37
2023-04-30T14:37:14.010Z,4.10
2023-04-30T14:40:03.088Z,4.00
2023-04-30T14:42:51.737Z,4.23
2023-04-30T14:45:40.867Z,4.40
2023-04-30T14:48:30.854Z,4.20
2023-04-30T14:51:19.282Z,4.53
2023-04-30T14:54:07.784Z,4.50
2023-04-30T14:56:56.416Z,4.17
2023-04-30T14:59:45.014Z,4.07
2023-04-30T15:02:33.594Z,3.77
2023-04-30T15:05:23.570Z,3.97
2023-04-30T15:08:11.990Z,4.63
2023-04-30T15:11:00.737Z,4.00
2023-04-30T15:13:49.195Z,4.07
2023-04-30T15:16:37.703Z,3.40
2023-04-30T15:19:26.284Z,4.27
2023-04-30T15:22:16.277Z,4.13
2023-04-30T15:25:05.289Z,4.57
2023-04-30T15:27:53.827Z,4.23
2023-04-30T15:30:42.583Z,3.80
2023-04-30T15:33:31.425Z,4.00
2023-04-30T15:36:22.304Z,3.53
2023-04-30T15:39:12.180Z,3.70
2023-04-30T15:42:00.625Z,4.10
2023-04-30T15:44:49.080Z,4.73
2023-04-30T15:47:37.756Z,3.97
2023-04-30T15:50:26.257Z,3.90
2023-04-30T15:53:15.111Z,4.03
2023-04-30T15:56:05.522Z,3.37
2023-04-30T15:58:54.688Z,4.03
2023-04-30T16:01:43.677Z,4.07
2023-04-30T16:04:32.333Z,3.53
2023-04-30T16:07:20.934Z,4.73
2023-04-30T16:10:10.956Z,4.37
2023-04-30T16:13:00.825Z,4.10
2023-04-30T16:15:50.092Z,3.63
2023-04-30T16:18:38.584Z,3.70
2023-04-30T16:21:27.275Z,4.10
2023-04-30T16:24:16.228Z,4.03
2023-04-30T16:27:05.047Z,4.00
2023-04-30T16:29:55.427Z,3.60
2023-04-30T16:32:44.533Z,4.43
2023-04-30T16:35:33.458Z,3.80
2023-04-30T16:38:22.371Z,4.13
2023-04-30T16:41:12.129Z,3.53
2023-04-30T16:44:00.720Z,3.97
2023-04-30T16:46:50.666Z,4.00
2023-04-30T16:49:39.728Z,4.00
2023-04-30T16:52:29.627Z,4.10
2023-04-30T16:55:18.371Z,3.57
2023-04-30T16:58:07.105Z,4.07
2023-04-30T17:00:56.803Z,3.80
2023-04-30T17:03:47.370Z,4.50
2023-04-30T17:06:36.769Z,4.07
2023-04-30T17:09:25.424Z,3.70
2023-04-30T17:12:13.947Z,3.50
2023-04-30T17:15:02.470Z,3.77
2023-04-30T17:17:50.983Z,3.77
2023-04-30T17:20:40.910Z,4.20
2023-04-30T17:23:29.504Z,3.60
2023-04-30T17:26:21.447Z,3.40
2023-04-30T17:29:09.944Z,3.60
2023-04-30T17:31:58.474Z,3.87
2023-04-30T17:34:47.156Z,3.77
2023-04-30T17:37:36.964Z,3.87
2023-04-30T17:40:25.473Z,3.50
2023-04-30T17:43:14.033Z,3.83
2023-04-30T17:46:03.421Z,4.00
2023-04-30T17:48:51.965Z,3.90
2023-04-30T17:51:40.452Z,3.83
2023-04-30T17:54:31.408Z,4.07
2023-04-30T17:57:19.940Z,3.67
2023-04-30T18:00:09.659Z,4.43
2023-04-30T18:02:58.187Z,4.80
2023-04-30T18:05:46.787Z,4.60
2023-04-30T18:08:35.348Z,4.20
2023-04-30T18:11:25.266Z,4.60
2023-04-30T18:14:14.121Z,3.90
2023-04-30T18:17:02.965Z,4.30
2023-04-30T18:19:51.414Z,4.50
2023-04-30T18:22:43.334Z,4.53
2023-04-30T18:25:34.139Z,5.00
2023-04-30T18:28:24.674Z,5.33
2023-04-30T18:31:13.276Z,5.80
2023-04-30T18:34:01.859Z,6.60
2023-04-30T18:36:50.408Z,5.50
2023-04-30T18:39:38.896Z,5.00
2023-04-30T18:42:27.397Z,5.20
2023-04-30T18:45:17.903Z,5.40
2023-04-30T18:48:07.823Z,5.43
2023-04-30T18:50:56.368Z,5.80
2023-04-30T18:53:47.104Z,5.77
2023-04-30T18:56:36.840Z,6.73
2023-04-30T18:59:27.397Z,6.97
2023-04-30T19:02:17.558Z,7.47
2023-04-30T19:05:07.397Z,7.53
2023-04-30T19:07:55.855Z,6.77
2023-04-30T19:10:44.482Z,7.47
2023-04-30T19:13:33.400Z,7.00
2023-04-30T19:16:21.955Z,6.87
2023-04-30T19:19:11.987Z,6.37
2023-04-30T19:22:01.168Z,7.50
2023-04-30T19:24:49.627Z,7.63
2023-04-30T19:27:38.224Z,8.40
2023-04-30T19:30:26.771Z,8.40
2023-04-30T19:33:15.434Z,6.90
2023-04-30T19:36:05.994Z,8.07
2023-04-30T19:38:54.612Z,7.50
2023-04-30T19:41:43.087Z,6.77
2023-04-30T19:44:31.547Z,6.57
2023-04-30T19:47:20.107Z,7.60
2023-04-30T19:50:10.020Z,7.67
2023-04-30T19:52:59.822Z,6.80
2023-04-30T19:55:48.487Z,7.70
2023-04-30T19:58:37.101Z,6.60
2023-04-30T20:01:25.609Z,9.13
2023-04-30T20:04:14.229Z,8.83
2023-04-30T20:07:02.954Z,9.13
2023-04-30T20:09:53.118Z,8.80
2023-04-30T20:12:41.860Z,8.33
2023-04-30T20:15:30.691Z,7.77
2023-04-30T20:18:19.217Z,8.30
2023-04-30T20:21:09.951Z,8.53
2023-04-30T20:24:00.230Z,10.00
2023-04-30T20:26:51.338Z,9.07
2023-04-30T20:29:41.547Z,8.07
2023-04-30T20:32:30.031Z,7.87
2023-04-30T20:35:19.188Z,9.00
2023-04-30T20:38:07.768Z,9.90
2023-04-30T20:40:56.384Z,8.73
2023-04-30T20:43:46.290Z,8.20
2023-04-30T20:46:36.161Z,9.03
2023-04-30T20:49:26.925Z,9.13
2023-04-30T20:52:15.779Z,8.00
2023-04-30T20:55:04.624Z,8.47
2023-04-30T20:57:53.317Z,8.90
2023-04-30T21:00:43.316Z,8.10
2023-04-30T21:03:32.083Z,9.30
2023-04-30T21:06:20.699Z,9.27
2023-04-30T21:09:10.631Z,9.17
2023-04-30T21:11:59.539Z,10.23
2023-04-30T21:14:48.080Z,9.00
2023-04-30T21:17:38.004Z,8.80
2023-04-30T21:20:26.637Z,7.70
2023-04-30T21:23:15.597Z,8.43
2023-04-30T21:26:04.130Z,8.43
2023-04-30T21:28:52.758Z,7.93
2023-04-30T21:31:41.401Z,8.83
2023-04-30T21:34:32.772Z,9.07
2023-04-30T21:37:21.522Z,9.50
2023-04-30T21:40:11.013Z,9.70
2023-04-30T21:42:59.566Z,9.57
2023-04-30T21:45:48.190Z,8.60
2023-04-30T21:48:38.372Z,8.60
2023-04-30T21:51:28.218Z,8.83
2023-04-30T21:54:19.064Z,9.27
2023-04-30T21:57:07.525Z,9.00
2023-04-30T21:59:56.253Z,9.30
2023-04-30T22:02:45.076Z,9.40
2023-04-30T22:05:33.614Z,8.87
2023-04-30T22:08:23.568Z,8.97
2023-04-30T22:11:12.386Z,8.37
2023-04-30T22:14:01.143Z,7.83
2023-04-30T22:16:49.757Z,9.17
2023-04-30T22:19:38.445Z,9.13
2023-04-30T22:22:27.065Z,8.90
2023-04-30T22:25:17.661Z,10.30
2023-04-30T22:28:06.240Z,9.77
2023-04-30T22:30:59.608Z,10.27
2023-04-30T22:33:48.079Z,9.67
2023-04-30T22:36:36.944Z,9.30
2023-04-30T22:39:25.432Z,10.07
2023-04-30T22:42:15.518Z,10.23
2023-04-30T22:45:04.336Z,10.73
2023-04-30T22:47:53.498Z,12.13
2023-04-30T22:50:42.031Z,12.27
2023-04-30T22:53:30.555Z,12.20
2023-04-30T22:56:19.063Z,11.70
2023-04-30T22:59:08.928Z,11.30
2023-04-30T23:01:57.596Z,11.30
2023-04-30T23:04:46.093Z,12.20
2023-04-30T23:07:34.675Z,11.40
2023-04-30T23:10:23.129Z,11.10
2023-04-30T23:13:11.813Z,10.77
2023-04-30T23:16:05.347Z,10.80
2023-04-30T23:18:54.015Z,11.40
2023-04-30T23:21:42.508Z,11.27
2023-04-30T23:24:35.111Z,11.20
2023-04-30T23:27:23.697Z,12.20
2023-04-30T23:30:12.631Z,10.60
2023-04-30T23:33:02.613Z,11.60
2023-04-30T23:35:52.698Z,11.43
2023-04-30T23:38:42.798Z,11.20
2023-04-30T23:41:31.522Z,10.27
2023-04-30T23:44:20.482Z,10.43
2023-04-30T23:47:09.301Z,9.80
2023-04-30T23:49:59.097Z,10.00
2023-04-30T23:52:47.720Z,10.30
2023-04-30T23:55:36.308Z,11.37
2023-04-30T23:58:24.903Z,12.07
